createdAt,value
2023-04-18T00:00:24.822Z,19.99
2023-04-18T00:03:16.249Z,19.98
2023-04-18T00:05:47.474Z,19.98
2023-04-18T00:08:15.524Z,19.97
2023-04-18T00:10:43.517Z,19.97
2023-04-18T00:13:12.305Z,19.96
2023-04-18T00:15:41.924Z,19.96
2023-04-18T00:18:10.524Z,19.95
2023-04-18T00:20:39.393Z,19.95
2023-04-18T00:23:08.070Z,19.94
2023-04-18T00:25:36.053Z,19.93
2023-04-18T00:28:04.011Z,19.93
2023-04-18T00:30:32.244Z,19.92
2023-04-18T00:33:00.506Z,19.91
2023-04-18T00:35:28.859Z,19.91
2023-04-18T00:37:56.926Z,19.90
2023-04-18T00:40:25.517Z,19.89
2023-04-18T00:42:53.985Z,19.89
2023-04-18T00:45:22.463Z,19.89
2023-04-18T00:47:50.484Z,19.88
2023-04-18T00:50:18.532Z,19.88
2023-04-18T00:52:46.995Z,19.87
2023-04-18T00:55:15.050Z,19.87
2023-04-18T00:57:43.335Z,19.86
2023-04-18T01:00:12.383Z,19.86
2023-04-18T01:02:41.326Z,19.85
2023-04-18T01:05:10.010Z,19.85
2023-04-18T01:07:40.734Z,19.85
2023-04-18T01:10:10.115Z,19.84
2023-04-18T01:12:38.318Z,19.83
2023-04-18T01:15:07.394Z,19.83
2023-04-18T01:17:36.387Z,19.82
2023-04-18T01:20:06.457Z,19.81
2023-04-18T01:22:34.421Z,19.81
2023-04-18T01:25:07.192Z,19.80
2023-04-18T01:27:35.447Z,19.80
2023-04-18T01:30:04.247Z,19.80
2023-04-18T01:32:32.229Z,19.79
2023-04-18T01:35:00.485Z,19.79
2023-04-18T01:37:28.453Z,19.78
2023-04-18T01:39:58.399Z,19.77
2023-04-18T01:42:26.650Z,19.77
2023-04-18T01:44:54.824Z,19.77
2023-04-18T01:47:22.926Z,19.76
2023-04-18T01:49:50.836Z,19.76
2023-04-18T01:52:18.940Z,19.75
2023-04-18T01:54:46.989Z,19.75
2023-04-18T01:57:15.387Z,19.74
2023-04-18T01:59:43.260Z,19.73
2023-04-18T02:02:11.504Z,19.73
2023-04-18T02:04:39.729Z,19.72
2023-04-18T02:07:07.779Z,19.71
2023-04-18T02:09:36.681Z,19.71
2023-04-18T02:12:05.069Z,19.71
2023-04-18T02:14:35.028Z,19.70
2023-04-18T02:17:03.348Z,19.69
2023-04-18T02:19:31.308Z,19.69
2023-04-18T02:21:59.488Z,19.67
2023-04-18T02:24:27.419Z,19.66
2023-04-18T02:26:55.418Z,19.65
2023-04-18T02:29:23.591Z,19.64
2023-04-18T02:31:51.618Z,19.64
2023-04-18T02:34:19.663Z,19.63
2023-04-18T02:36:49.447Z,19.62
2023-04-18T02:39:17.519Z,19.61
2023-04-18T02:41:45.698Z,19.60
2023-04-18T02:44:14.138Z,19.59
2023-04-18T02:46:43.063Z,19.59
2023-04-18T02:49:13.495Z,19.58
2023-04-18T02:51:41.570Z,19.58
2023-04-18T02:54:09.735Z,19.57
2023-04-18T02:56:48.060Z,19.56
2023-04-18T02:59:36.302Z,19.55
2023-04-18T03:02:26.314Z,19.55
2023-04-18T03:04:57.089Z,19.54
2023-04-18T03:07:25.288Z,19.54
2023-04-18T03:09:54.293Z,19.54
2023-04-18T03:12:28.304Z,19.52
2023-04-18T03:14:56.411Z,19.51
2023-04-18T03:17:24.586Z,19.51
2023-04-18T03:19:53.461Z,19.49
2023-04-18T03:22:21.778Z,19.49
2023-04-18T03:24:56.234Z,19.48
2023-04-18T03:27:32.607Z,19.48
2023-04-18T03:30:01.995Z,19.47
2023-04-18T03:32:33.938Z,19.47
2023-04-18T03:35:02.968Z,19.46
2023-04-18T03:37:31.032Z,19.46
2023-04-18T03:40:00.949Z,19.46
2023-04-18T03:42:29.735Z,19.46
2023-04-18T03:44:58.222Z,19.45
2023-04-18T03:47:26.860Z,19.45
2023-04-18T03:49:57.405Z,19.45
2023-04-18T03:52:27.516Z,19.44
2023-04-18T03:54:57.240Z,19.44
2023-04-18T03:57:27.397Z,19.44
2023-04-18T03:59:55.501Z,19.43
2023-04-18T04:02:23.793Z,19.43
2023-04-18T04:04:52.131Z,19.42
2023-04-18T04:07:20.895Z,19.41
2023-04-18T04:09:48.865Z,19.41
2023-04-18T04:12:17.556Z,19.40
2023-04-18T04:14:45.513Z,19.40
2023-04-18T04:17:13.798Z,19.40
2023-04-18T04:19:41.802Z,19.38
2023-04-18T04:22:13.636Z,19.37
2023-04-18T04:24:42.960Z,19.38
2023-04-18T04:27:13.668Z,19.37
2023-04-18T04:29:43.904Z,19.37
2023-04-18T04:32:13.642Z,19.41
2023-04-18T04:34:42.500Z,19.49
2023-04-18T04:37:18.855Z,19.56
2023-04-18T04:40:01.059Z,19.64
2023-04-18T04:42:41.419Z,19.71
2023-04-18T04:45:15.239Z,19.77
2023-04-18T04:47:44.194Z,19.84
2023-04-18T04:50:15.771Z,19.90
2023-04-18T04:52:44.049Z,19.96
2023-04-18T04:55:12.118Z,20.02
2023-04-18T04:57:41.727Z,20.08
2023-04-18T05:00:27.009Z,20.13
2023-04-18T05:02:55.943Z,20.19
2023-04-18T05:05:24.792Z,20.24
2023-04-18T05:07:52.853Z,20.30
2023-04-18T05:10:21.946Z,20.35
2023-04-18T05:12:50.027Z,20.39
2023-04-18T05:15:18.505Z,20.44
2023-04-18T05:17:46.747Z,20.48
2023-04-18T05:20:15.171Z,20.53
2023-04-18T05:22:43.434Z,20.56
2023-04-18T05:25:12.605Z,20.61
2023-04-18T05:27:40.809Z,20.64
2023-04-18T05:30:09.493Z,20.56
2023-04-18T05:32:39.207Z,20.54
2023-04-18T05:35:08.121Z,20.54
2023-04-18T05:37:36.411Z,20.59
2023-04-18T05:40:05.210Z,20.67
2023-04-18T05:42:33.233Z,20.71
2023-04-18T05:45:01.304Z,20.75
2023-04-18T05:47:30.595Z,20.78
2023-04-18T05:49:58.682Z,20.82
2023-04-18T05:52:26.860Z,20.87
2023-04-18T05:54:55.045Z,20.91
2023-04-18T05:57:23.514Z,20.95
2023-04-18T05:59:51.475Z,20.99
2023-04-18T06:02:19.566Z,21.02
2023-04-18T06:04:49.268Z,21.05
2023-04-18T06:07:17.430Z,21.09
2023-04-18T06:09:45.723Z,21.14
2023-04-18T06:12:13.686Z,21.17
2023-04-18T06:14:41.569Z,21.20
2023-04-18T06:17:10.307Z,21.23
2023-04-18T06:19:39.754Z,21.26
2023-04-18T06:22:08.337Z,21.29
2023-04-18T06:24:37.443Z,21.32
2023-04-18T06:27:05.608Z,21.35
2023-04-18T06:29:35.577Z,21.39
2023-04-18T06:32:05.021Z,21.42
2023-04-18T06:34:33.141Z,21.46
2023-04-18T06:37:01.120Z,21.50
2023-04-18T06:39:29.136Z,21.54
2023-04-18T06:41:58.118Z,21.59
2023-04-18T06:44:29.606Z,21.63
2023-04-18T06:46:57.771Z,21.67
2023-04-18T06:49:26.696Z,21.70
2023-04-18T06:51:55.031Z,21.74
2023-04-18T06:54:23.030Z,21.77
2023-04-18T06:56:51.365Z,21.82
2023-04-18T06:59:21.644Z,21.86
2023-04-18T07:01:50.870Z,21.90
2023-04-18T07:04:19.538Z,21.95
2023-04-18T07:06:48.070Z,21.99
2023-04-18T07:09:17.392Z,22.02
2023-04-18T07:11:45.446Z,22.04
2023-04-18T07:14:13.688Z,22.06
2023-04-18T07:16:42.081Z,22.09
2023-04-18T07:19:10.183Z,22.12
2023-04-18T07:21:40.785Z,22.14
2023-04-18T07:24:08.755Z,22.17
2023-04-18T07:26:38.473Z,22.20
2023-04-18T07:29:06.659Z,22.24
2023-04-18T07:31:35.008Z,22.27
2023-04-18T07:34:03.298Z,22.30
2023-04-18T07:36:31.771Z,22.34
2023-04-18T07:38:59.840Z,22.37
2023-04-18T07:41:28.029Z,22.41
2023-04-18T07:43:56.087Z,22.44
2023-04-18T07:46:24.207Z,22.47
2023-04-18T07:48:52.344Z,22.51
2023-04-18T07:51:20.703Z,22.54
2023-04-18T07:53:48.793Z,22.57
2023-04-18T07:56:16.864Z,22.60
2023-04-18T07:58:44.825Z,22.62
2023-04-18T08:01:15.479Z,22.64
2023-04-18T08:03:43.764Z,22.65
2023-04-18T08:06:12.118Z,22.66
2023-04-18T08:08:40.196Z,22.68
2023-04-18T08:11:08.234Z,22.70
2023-04-18T08:13:36.334Z,22.71
2023-04-18T08:16:04.548Z,22.70
2023-04-18T08:18:32.802Z,22.70
2023-04-18T08:21:00.865Z,22.71
2023-04-18T08:23:28.971Z,22.73
2023-04-18T08:25:57.006Z,22.76
2023-04-18T08:28:27.642Z,22.77
2023-04-18T08:30:56.701Z,22.80
2023-04-18T08:33:24.912Z,22.83
2023-04-18T08:35:52.914Z,22.85
2023-04-18T08:38:20.873Z,22.87
2023-04-18T08:40:49.017Z,22.88
2023-04-18T08:43:17.294Z,22.89
2023-04-18T08:46:03.378Z,22.91
2023-04-18T08:48:52.761Z,22.93
2023-04-18T08:51:22.367Z,22.95
2023-04-18T08:53:50.835Z,22.99
2023-04-18T08:56:22.458Z,23.01
2023-04-18T08:58:50.884Z,23.05
2023-04-18T09:01:19.098Z,23.07
2023-04-18T09:04:06.421Z,23.10
2023-04-18T09:06:36.181Z,23.12
2023-04-18T09:09:04.574Z,23.15
2023-04-18T09:11:34.472Z,23.18
2023-04-18T09:14:02.806Z,23.22
2023-04-18T09:16:34.411Z,23.24
2023-04-18T09:19:13.617Z,23.27
2023-04-18T09:21:44.508Z,23.30
2023-04-18T09:24:30.575Z,23.34
2023-04-18T09:26:59.993Z,23.36
2023-04-18T09:29:49.602Z,23.39
2023-04-18T09:32:27.683Z,23.42
2023-04-18T09:35:03.936Z,23.45
2023-04-18T09:37:32.616Z,23.46
2023-04-18T09:40:00.688Z,23.48
2023-04-18T09:42:29.882Z,23.50
2023-04-18T09:45:03.902Z,23.52
2023-04-18T09:47:35.124Z,23.55
2023-04-18T09:50:08.398Z,23.57
2023-04-18T09:52:37.849Z,23.60
2023-04-18T09:55:07.776Z,23.62
2023-04-18T09:57:36.544Z,23.65
2023-04-18T10:00:08.814Z,23.66
2023-04-18T10:03:00.604Z,23.68
2023-04-18T10:05:31.778Z,23.71
2023-04-18T10:08:00.100Z,23.72
2023-04-18T10:10:28.023Z,23.73
2023-04-18T10:12:57.425Z,23.72
2023-04-18T10:15:27.054Z,23.73
2023-04-18T10:18:05.818Z,23.74
2023-04-18T10:20:35.456Z,23.73
2023-04-18T10:23:34.873Z,23.74
2023-04-18T10:26:04.076Z,23.73
2023-04-18T10:28:54.920Z,23.73
2023-04-18T10:31:24.542Z,23.73
2023-04-18T10:36:28.908Z,23.75
2023-04-18T10:39:20.321Z,23.75
2023-04-18T10:41:50.632Z,23.75
2023-04-18T10:44:20.786Z,23.76
2023-04-18T10:46:51.854Z,23.79
2023-04-18T10:54:58.373Z,23.91
2023-04-18T10:57:38.189Z,23.94
2023-04-18T11:00:11.441Z,23.97
2023-04-18T11:02:40.502Z,24.00
2023-04-18T11:05:09.869Z,24.01
2023-04-18T11:07:39.516Z,24.02
2023-04-18T11:10:09.174Z,24.03
2023-04-18T11:12:38.920Z,24.04
2023-04-18T11:15:15.312Z,24.05
2023-04-18T11:17:43.900Z,24.05
2023-04-18T11:20:14.016Z,24.06
2023-04-18T11:22:48.981Z,24.06
2023-04-18T11:25:17.712Z,24.07
2023-04-18T11:27:51.729Z,24.09
2023-04-18T11:30:19.901Z,24.10
2023-04-18T11:32:48.071Z,24.10
2023-04-18T11:35:16.407Z,24.09
2023-04-18T11:37:46.121Z,24.08
2023-04-18T11:40:14.569Z,24.06
2023-04-18T11:42:42.698Z,24.04
2023-04-18T11:45:12.103Z,24.01
2023-04-18T11:47:41.881Z,23.99
2023-04-18T11:50:11.634Z,23.97
2023-04-18T11:52:41.341Z,23.96
2023-04-18T11:55:18.630Z,23.95
2023-04-18T12:03:17.344Z,23.94
2023-04-18T12:05:46.133Z,23.93
2023-04-18T12:08:19.141Z,23.91
2023-04-18T12:10:50.908Z,23.89
2023-04-18T12:13:19.475Z,23.87
2023-04-18T12:23:37.211Z,23.82
2023-04-18T12:26:07.127Z,23.82
2023-04-18T12:28:35.548Z,23.82
2023-04-18T12:31:07.123Z,23.82
2023-04-18T12:33:36.883Z,23.82
2023-04-18T12:36:06.226Z,23.81
2023-04-18T12:38:34.285Z,23.45
2023-04-18T12:41:02.572Z,23.02
2023-04-18T12:43:30.747Z,22.65
2023-04-18T12:45:59.720Z,22.40
2023-04-18T12:48:28.112Z,22.28
2023-04-18T12:50:56.281Z,22.19
2023-04-18T12:53:24.247Z,22.15
2023-04-18T12:55:52.336Z,22.10
2023-04-18T12:58:21.009Z,22.11
2023-04-18T13:00:49.317Z,22.12
2023-04-18T13:03:17.692Z,22.16
2023-04-18T13:05:46.253Z,22.21
2023-04-18T13:08:17.560Z,22.24
2023-04-18T13:10:47.769Z,22.26
2023-04-18T13:13:16.173Z,22.27
2023-04-18T13:15:44.274Z,22.25
2023-04-18T13:18:12.548Z,22.18
2023-04-18T13:20:40.925Z,22.11
2023-04-18T13:23:09.008Z,22.03
2023-04-18T13:25:37.195Z,21.95
2023-04-18T13:28:05.865Z,21.85
2023-04-18T13:30:35.746Z,21.81
2023-04-18T13:33:04.116Z,21.79
2023-04-18T13:35:33.558Z,21.80
2023-04-18T13:38:01.625Z,21.81
2023-04-18T13:40:29.789Z,21.82
2023-04-18T13:42:58.085Z,21.86
2023-04-18T13:45:26.146Z,21.86
2023-04-18T13:47:54.268Z,21.83
2023-04-18T13:50:23.529Z,21.79
2023-04-18T13:52:52.234Z,21.75
2023-04-18T13:55:20.292Z,21.69
2023-04-18T13:57:48.559Z,21.65
2023-04-18T14:00:16.993Z,21.60
2023-04-18T14:02:45.400Z,21.53
2023-04-18T14:05:13.901Z,21.48
2023-04-18T14:07:42.292Z,21.42
2023-04-18T14:10:11.136Z,21.40
2023-04-18T14:12:40.131Z,21.40
2023-04-18T14:15:09.476Z,21.40
2023-04-18T14:17:37.570Z,21.45
2023-04-18T14:20:06.843Z,21.53
2023-04-18T14:22:34.921Z,21.61
2023-04-18T14:25:02.945Z,21.69
2023-04-18T14:27:31.267Z,21.76
2023-04-18T14:29:59.142Z,21.82
2023-04-18T14:32:29.372Z,21.90
2023-04-18T14:34:59.060Z,21.97
2023-04-18T14:37:27.025Z,22.03
2023-04-18T14:39:55.100Z,22.08
2023-04-18T14:42:23.293Z,22.13
2023-04-18T14:44:51.437Z,22.19
2023-04-18T14:47:20.137Z,22.24
2023-04-18T14:49:48.229Z,22.29
2023-04-18T14:52:16.105Z,22.33
2023-04-18T14:54:44.177Z,22.38
2023-04-18T14:57:13.141Z,22.42
2023-04-18T14:59:41.204Z,22.47
2023-04-18T15:02:09.210Z,22.52
2023-04-18T15:04:37.549Z,22.56
2023-04-18T15:07:06.240Z,22.60
2023-04-18T15:09:37.872Z,22.63
2023-04-18T15:12:06.691Z,22.67
2023-04-18T15:14:35.898Z,22.71
2023-04-18T15:17:05.695Z,22.74
2023-04-18T15:19:33.762Z,22.77
2023-04-18T15:22:02.042Z,22.80
2023-04-18T15:24:29.935Z,22.83
2023-04-18T15:26:59.076Z,22.85
2023-04-18T15:29:27.311Z,22.88
2023-04-18T15:31:55.491Z,22.91
2023-04-18T15:44:02.845Z,23.05
2023-04-18T15:46:30.812Z,23.06
2023-04-18T15:48:59.078Z,23.09
2023-04-18T15:51:28.523Z,23.10
2023-04-18T15:53:56.762Z,23.11
2023-04-18T15:56:26.251Z,23.13
2023-04-18T15:58:57.688Z,23.13
2023-04-18T16:01:25.776Z,23.13
2023-04-18T16:03:53.999Z,23.14
2023-04-18T16:06:23.423Z,23.14
2023-04-18T16:08:51.515Z,23.14
2023-04-18T16:11:20.005Z,23.15
2023-04-18T16:13:47.964Z,23.16
2023-04-18T16:16:16.985Z,23.17
2023-04-18T16:18:45.449Z,23.18
2023-04-18T16:21:15.082Z,23.20
2023-04-18T16:23:43.539Z,23.22
2023-04-18T16:26:11.608Z,23.24
2023-04-18T16:28:39.785Z,23.25
2023-04-18T16:31:07.700Z,23.19
2023-04-18T16:33:35.849Z,22.98
2023-04-18T16:36:04.824Z,22.70
2023-04-18T16:38:33.086Z,22.37
2023-04-18T16:41:01.726Z,22.10
2023-04-18T16:43:36.639Z,21.89
2023-04-18T16:46:05.144Z,21.79
2023-04-18T16:48:33.190Z,21.80
2023-04-18T16:51:01.238Z,21.84
2023-04-18T16:53:29.318Z,21.92
2023-04-18T16:55:57.715Z,22.00
2023-04-18T16:58:26.155Z,22.07
2023-04-18T17:00:55.076Z,22.13
2023-04-18T17:03:23.200Z,22.19
2023-04-18T17:05:51.505Z,22.23
2023-04-18T17:08:19.610Z,22.28
2023-04-18T17:10:47.661Z,22.32
2023-04-18T17:13:15.729Z,22.36
2023-04-18T17:15:44.470Z,22.40
2023-04-18T17:18:12.796Z,22.44
2023-04-18T17:20:41.173Z,22.47
2023-04-18T17:23:09.167Z,22.51
2023-04-18T17:25:37.213Z,22.55
2023-04-18T17:28:05.400Z,22.57
2023-04-18T17:30:33.561Z,22.60
2023-04-18T17:33:01.682Z,22.62
2023-04-18T17:35:29.916Z,22.64
2023-04-18T17:37:58.181Z,22.66
2023-04-18T17:40:26.373Z,22.68
2023-04-18T17:42:54.536Z,22.70
2023-04-18T17:45:22.630Z,22.73
2023-04-18T17:47:51.053Z,22.75
2023-04-18T17:50:19.667Z,22.77
2023-04-18T17:52:47.652Z,22.79
2023-04-18T17:55:15.940Z,22.79
2023-04-18T17:57:44.078Z,22.80
2023-04-18T18:00:13.913Z,22.83
2023-04-18T18:02:43.032Z,22.85
2023-04-18T18:05:13.554Z,22.86
2023-04-18T18:07:46.004Z,22.89
2023-04-18T18:10:19.076Z,22.90
2023-04-18T18:12:47.161Z,22.91
2023-04-18T18:15:15.543Z,22.93
2023-04-18T18:17:43.637Z,22.95
2023-04-18T18:20:12.193Z,22.97
2023-04-18T18:22:40.884Z,22.99
2023-04-18T18:25:09.562Z,23.00
2023-04-18T18:27:37.808Z,23.01
2023-04-18T18:30:06.333Z,23.02
2023-04-18T18:32:34.432Z,23.02
2023-04-18T18:35:02.750Z,23.02
2023-04-18T18:37:33.219Z,23.02
2023-04-18T18:40:04.744Z,23.02
2023-04-18T18:42:33.036Z,23.02
2023-04-18T18:45:01.850Z,23.02
2023-04-18T18:47:30.821Z,23.02
2023-04-18T18:49:58.987Z,23.02
2023-04-18T18:52:29.864Z,23.02
2023-04-18T18:54:58.094Z,23.01
2023-04-18T18:57:26.383Z,23.01
2023-04-18T18:59:55.873Z,23.01
2023-04-18T19:02:24.538Z,23.01
2023-04-18T19:04:53.310Z,23.01
2023-04-18T19:07:21.527Z,23.00
2023-04-18T19:09:49.717Z,22.98
2023-04-18T19:12:17.913Z,23.00
2023-04-18T19:14:47.600Z,22.99
2023-04-18T19:17:18.040Z,22.98
2023-04-18T19:19:46.194Z,22.98
2023-04-18T19:22:14.384Z,22.97
2023-04-18T19:24:42.387Z,22.96
2023-04-18T19:27:10.518Z,22.95
2023-04-18T19:29:39.195Z,22.95
2023-04-18T19:32:08.505Z,22.94
2023-04-18T19:34:37.422Z,22.94
2023-04-18T19:37:05.570Z,22.93
2023-04-18T19:39:33.650Z,22.93
2023-04-18T19:42:02.835Z,22.92
2023-04-18T19:44:31.324Z,22.92
2023-04-18T19:46:59.511Z,22.92
2023-04-18T19:49:27.770Z,22.91
2023-04-18T19:51:56.148Z,22.90
2023-04-18T19:54:24.083Z,22.90
2023-04-18T19:56:52.183Z,22.89
2023-04-18T19:59:20.358Z,22.88
2023-04-18T20:01:48.538Z,22.88
2023-04-18T20:04:16.701Z,22.87
2023-04-18T20:06:45.504Z,22.88
2023-04-18T20:09:16.952Z,22.91
2023-04-18T20:11:46.657Z,22.92
2023-04-18T20:14:14.945Z,22.95
2023-04-18T20:16:43.119Z,22.96
2023-04-18T20:19:12.846Z,22.98
2023-04-18T20:21:41.404Z,22.99
2023-04-18T20:24:09.886Z,23.01
2023-04-18T20:26:37.958Z,23.03
2023-04-18T20:29:06.033Z,23.05
2023-04-18T20:31:35.234Z,23.06
2023-04-18T20:34:03.302Z,23.07
2023-04-18T20:36:32.298Z,23.09
2023-04-18T20:39:02.525Z,23.10
2023-04-18T20:41:32.646Z,23.11
2023-04-18T20:44:05.341Z,23.10
2023-04-18T20:46:33.534Z,23.10
2023-04-18T20:49:01.778Z,23.10
2023-04-18T20:51:30.068Z,23.10
2023-04-18T20:53:58.132Z,23.12
2023-04-18T20:56:26.391Z,23.13
2023-04-18T20:58:54.572Z,23.15
2023-04-18T21:01:22.977Z,23.16
2023-04-18T21:03:51.426Z,23.17
2023-04-18T21:06:22.198Z,23.20
2023-04-18T21:08:50.948Z,23.22
2023-04-18T21:11:19.134Z,23.24
2023-04-18T21:13:47.086Z,23.26
2023-04-18T21:16:15.310Z,23.27
2023-04-18T21:18:43.774Z,23.29
2023-04-18T21:21:11.996Z,23.30
2023-04-18T21:23:43.819Z,23.31
2023-04-18T21:26:13.234Z,23.31
2023-04-18T21:29:04.735Z,23.32
2023-04-18T21:31:33.833Z,23.33
2023-04-18T21:34:04.256Z,23.33
2023-04-18T21:36:32.718Z,23.31
2023-04-18T21:39:01.036Z,23.30
2023-04-18T21:41:29.671Z,23.29
2023-04-18T21:43:57.943Z,23.27
2023-04-18T21:46:26.582Z,23.25
2023-04-18T21:48:54.729Z,23.24
2023-04-18T21:51:22.786Z,23.23
2023-04-18T21:53:51.055Z,23.21
2023-04-18T21:56:19.140Z,23.19
2023-04-18T21:58:47.811Z,23.17
2023-04-18T22:01:15.750Z,23.14
2023-04-18T22:03:43.972Z,23.13
2023-04-18T22:06:12.543Z,23.11
2023-04-18T22:08:42.260Z,23.10
2023-04-18T22:11:11.886Z,23.07
2023-04-18T22:13:39.917Z,23.05
2023-04-18T22:16:09.573Z,23.03
2023-04-18T22:18:38.081Z,23.02
2023-04-18T22:21:06.905Z,23.00
2023-04-18T22:23:34.995Z,22.99
2023-04-18T22:26:03.055Z,22.98
2023-04-18T22:28:31.232Z,22.96
2023-04-18T22:31:00.061Z,22.94
2023-04-18T22:33:28.607Z,22.93
2023-04-18T22:35:56.691Z,22.92
2023-04-18T22:38:25.358Z,22.91
2023-04-18T22:40:53.639Z,22.89
2023-04-18T22:43:23.757Z,22.88
2023-04-18T22:45:51.992Z,22.87
2023-04-18T22:48:20.442Z,22.86
2023-04-18T22:50:50.020Z,22.85
2023-04-18T22:53:18.506Z,22.83
2023-04-18T22:55:46.902Z,22.81
2023-04-18T22:58:15.158Z,22.80
2023-04-18T23:00:43.440Z,22.78
2023-04-18T23:03:11.677Z,22.78
2023-04-18T23:05:40.206Z,22.77
2023-04-18T23:08:08.490Z,22.76
2023-04-18T23:10:36.745Z,22.75
2023-04-18T23:13:04.712Z,22.74
2023-04-18T23:15:33.010Z,22.73
2023-04-18T23:18:01.384Z,22.72
2023-04-18T23:20:29.447Z,22.71
2023-04-18T23:22:57.729Z,22.70
2023-04-18T23:25:25.707Z,22.69
2023-04-18T23:27:53.866Z,22.68
2023-04-18T23:30:22.034Z,22.67
2023-04-18T23:32:50.150Z,22.65
2023-04-18T23:35:18.291Z,22.64
2023-04-18T23:37:46.368Z,22.62
2023-04-18T23:40:15.481Z,22.62
2023-04-18T23:42:44.437Z,22.60
2023-04-18T23:45:12.936Z,22.59
2023-04-18T23:47:41.056Z,22.58
2023-04-18T23:50:09.794Z,22.57
2023-04-18T23:52:39.124Z,22.56
2023-04-18T23:55:07.869Z,22.55
2023-04-18T23:57:36.058Z,22.52
